sensor_id;sensor_type;location;lat;lon;timestamp;P1;durP1;ratioP1;P2;durP2;ratioP2
43070;SDS011;36278;47.952;21.714;2022-07-31T00:00:04;21.30;;;19.05;;
43070;SDS011;36278;47.952;21.714;2022-07-31T00:02:33;19.88;;;17.95;;
43070;SDS011;36278;47.952;21.714;2022-07-31T00:05:00;20.65;;;17.77;;
43070;SDS011;36278;47.952;21.714;2022-07-31T00:07:25;26.40;;;23.58;;
43070;SDS011;36278;47.952;21.714;2022-07-31T00:09:51;19.40;;;17.58;;
43070;SDS011;36278;47.952;21.714;2022-07-31T00:12:17;20.35;;;18.38;;
43070;SDS011;36278;47.952;21.714;2022-07-31T00:14:42;19.67;;;17.67;;
43070;SDS011;36278;47.952;21.714;2022-07-31T00:17:08;21.60;;;17.75;;
43070;SDS011;36278;47.952;21.714;2022-07-31T00:19:33;18.77;;;16.98;;
43070;SDS011;36278;47.952;21.714;2022-07-31T00:21:59;19.85;;;17.45;;
43070;SDS011;36278;47.952;21.714;2022-07-31T00:24:24;18.65;;;16.67;;
43070;SDS011;36278;47.952;21.714;2022-07-31T00:26:51;19.30;;;17.17;;
43070;SDS011;36278;47.952;21.714;2022-07-31T00:29:17;19.13;;;17.33;;
43070;SDS011;36278;47.952;21.714;2022-07-31T00:31:42;17.92;;;16.08;;
43070;SDS011;36278;47.952;21.714;2022-07-31T00:34:08;19.05;;;17.15;;
43070;SDS011;36278;47.952;21.714;2022-07-31T00:36:33;18.17;;;16.48;;
43070;SDS011;36278;47.952;21.714;2022-07-31T00:38:59;20.02;;;18.13;;
43070;SDS011;36278;47.952;21.714;2022-07-31T00:41:24;18.75;;;16.75;;
43070;SDS011;36278;47.952;21.714;2022-07-31T00:44:00;20.27;;;18.17;;
43070;SDS011;36278;47.952;21.714;2022-07-31T00:46:25;19.90;;;17.90;;
43070;SDS011;36278;47.952;21.714;2022-07-31T00:48:51;22.73;;;19.13;;
43070;SDS011;36278;47.952;21.714;2022-07-31T00:51:17;20.55;;;18.45;;
43070;SDS011;36278;47.952;21.714;2022-07-31T00:53:42;19.90;;;18.00;;
43070;SDS011;36278;47.952;21.714;2022-07-31T00:56:08;19.35;;;17.35;;
43070;SDS011;36278;47.952;21.714;2022-07-31T00:58:34;19.20;;;17.45;;
43070;SDS011;36278;47.952;21.714;2022-07-31T01:00:59;17.63;;;15.95;;
43070;SDS011;36278;47.952;21.714;2022-07-31T01:03:25;15.40;;;14.00;;
43070;SDS011;36278;47.952;21.714;2022-07-31T01:05:50;15.80;;;14.30;;
43070;SDS011;36278;47.952;21.714;2022-07-31T01:08:16;16.13;;;14.63;;
43070;SDS011;36278;47.952;21.714;2022-07-31T01:13:29;13.25;;;11.95;;
43070;SDS011;36278;47.952;21.714;2022-07-31T01:15:59;13.85;;;12.45;;
43070;SDS011;36278;47.952;21.714;2022-07-31T01:18:28;13.15;;;11.85;;
43070;SDS011;36278;47.952;21.714;2022-07-31T01:20:56;12.90;;;11.70;;
43070;SDS011;36278;47.952;21.714;2022-07-31T01:23:30;13.75;;;12.32;;
43070;SDS011;36278;47.952;21.714;2022-07-31T01:26:33;13.18;;;11.88;;
43070;SDS011;36278;47.952;21.714;2022-07-31T01:29:26;13.63;;;12.32;;
43070;SDS011;36278;47.952;21.714;2022-07-31T01:34:26;16.30;;;14.85;;
43070;SDS011;36278;47.952;21.714;2022-07-31T01:40:04;15.00;;;13.60;;
43070;SDS011;36278;47.952;21.714;2022-07-31T01:42:36;15.07;;;12.98;;
43070;SDS011;36278;47.952;21.714;2022-07-31T01:45:05;13.98;;;12.52;;
43070;SDS011;36278;47.952;21.714;2022-07-31T01:47:34;13.52;;;12.23;;
43070;SDS011;36278;47.952;21.714;2022-07-31T01:50:02;13.75;;;12.45;;
43070;SDS011;36278;47.952;21.714;2022-07-31T01:52:29;14.75;;;13.40;;
43070;SDS011;36278;47.952;21.714;2022-07-31T01:54:56;13.07;;;11.98;;
43070;SDS011;36278;47.952;21.714;2022-07-31T01:57:24;13.07;;;11.65;;
43070;SDS011;36278;47.952;21.714;2022-07-31T01:59:55;12.13;;;11.02;;
43070;SDS011;36278;47.952;21.714;2022-07-31T02:02:24;12.52;;;11.43;;
43070;SDS011;36278;47.952;21.714;2022-07-31T02:04:52;12.73;;;11.52;;
43070;SDS011;36278;47.952;21.714;2022-07-31T02:07:19;12.10;;;11.00;;
43070;SDS011;36278;47.952;21.714;2022-07-31T02:09:47;12.52;;;11.32;;
43070;SDS011;36278;47.952;21.714;2022-07-31T02:12:14;13.68;;;12.35;;
43070;SDS011;36278;47.952;21.714;2022-07-31T02:14:41;12.63;;;11.52;;
43070;SDS011;36278;47.952;21.714;2022-07-31T02:17:08;14.93;;;11.88;;
43070;SDS011;36278;47.952;21.714;2022-07-31T02:19:37;13.77;;;12.48;;
43070;SDS011;36278;47.952;21.714;2022-07-31T02:22:05;13.90;;;12.50;;
43070;SDS011;36278;47.952;21.714;2022-07-31T02:24:32;13.48;;;12.20;;
43070;SDS011;36278;47.952;21.714;2022-07-31T02:26:58;13.85;;;12.55;;
43070;SDS011;36278;47.952;21.714;2022-07-31T02:29:26;14.02;;;12.77;;
43070;SDS011;36278;47.952;21.714;2022-07-31T02:31:55;15.55;;;12.68;;
43070;SDS011;36278;47.952;21.714;2022-07-31T02:34:22;47.88;;;43.10;;
43070;SDS011;36278;47.952;21.714;2022-07-31T02:36:49;19.50;;;17.58;;
43070;SDS011;36278;47.952;21.714;2022-07-31T02:39:17;14.02;;;12.75;;
43070;SDS011;36278;47.952;21.714;2022-07-31T02:41:44;13.32;;;12.13;;
43070;SDS011;36278;47.952;21.714;2022-07-31T02:44:11;13.60;;;12.23;;
43070;SDS011;36278;47.952;21.714;2022-07-31T02:46:37;14.88;;;13.48;;
43070;SDS011;36278;47.952;21.714;2022-07-31T02:49:03;13.73;;;12.52;;
43070;SDS011;36278;47.952;21.714;2022-07-31T02:51:29;14.32;;;12.82;;
43070;SDS011;36278;47.952;21.714;2022-07-31T02:53:56;14.10;;;12.73;;
43070;SDS011;36278;47.952;21.714;2022-07-31T02:56:22;14.15;;;12.95;;
43070;SDS011;36278;47.952;21.714;2022-07-31T02:58:48;13.75;;;12.55;;
43070;SDS011;36278;47.952;21.714;2022-07-31T03:01:14;14.88;;;13.48;;
43070;SDS011;36278;47.952;21.714;2022-07-31T03:03:39;14.57;;;13.20;;
43070;SDS011;36278;47.952;21.714;2022-07-31T03:06:05;14.82;;;13.52;;
43070;SDS011;36278;47.952;21.714;2022-07-31T03:08:30;13.75;;;12.45;;
43070;SDS011;36278;47.952;21.714;2022-07-31T03:10:56;14.55;;;13.02;;
43070;SDS011;36278;47.952;21.714;2022-07-31T03:13:23;13.95;;;12.65;;
43070;SDS011;36278;47.952;21.714;2022-07-31T03:15:49;13.88;;;12.57;;
43070;SDS011;36278;47.952;21.714;2022-07-31T03:18:16;13.20;;;12.00;;
43070;SDS011;36278;47.952;21.714;2022-07-31T03:20:43;14.20;;;12.90;;
43070;SDS011;36278;47.952;21.714;2022-07-31T03:23:10;14.05;;;12.75;;
43070;SDS011;36278;47.952;21.714;2022-07-31T03:25:37;14.13;;;12.93;;
43070;SDS011;36278;47.952;21.714;2022-07-31T03:28:05;14.80;;;13.25;;
43070;SDS011;36278;47.952;21.714;2022-07-31T03:30:30;14.45;;;13.02;;
43070;SDS011;36278;47.952;21.714;2022-07-31T03:32:56;14.30;;;13.10;;
43070;SDS011;36278;47.952;21.714;2022-07-31T03:35:23;15.38;;;14.00;;
43070;SDS011;36278;47.952;21.714;2022-07-31T03:37:49;15.00;;;13.50;;
43070;SDS011;36278;47.952;21.714;2022-07-31T03:40:15;14.73;;;13.45;;
43070;SDS011;36278;47.952;21.714;2022-07-31T03:42:40;15.98;;;14.32;;
43070;SDS011;36278;47.952;21.714;2022-07-31T03:45:06;15.02;;;13.57;;
43070;SDS011;36278;47.952;21.714;2022-07-31T03:47:35;16.65;;;13.80;;
43070;SDS011;36278;47.952;21.714;2022-07-31T03:50:01;15.38;;;13.88;;
43070;SDS011;36278;47.952;21.714;2022-07-31T03:52:27;15.13;;;13.68;;
43070;SDS011;36278;47.952;21.714;2022-07-31T03:54:53;15.85;;;14.35;;
43070;SDS011;36278;47.952;21.714;2022-07-31T03:57:19;15.20;;;13.90;;
43070;SDS011;36278;47.952;21.714;2022-07-31T03:59:46;15.88;;;14.38;;
43070;SDS011;36278;47.952;21.714;2022-07-31T04:02:14;15.80;;;14.40;;
43070;SDS011;36278;47.952;21.714;2022-07-31T04:04:41;15.20;;;13.80;;
43070;SDS011;36278;47.952;21.714;2022-07-31T04:07:07;15.75;;;14.32;;
43070;SDS011;36278;47.952;21.714;2022-07-31T04:09:33;15.65;;;14.15;;
43070;SDS011;36278;47.952;21.714;2022-07-31T04:11:59;15.77;;;14.23;;
43070;SDS011;36278;47.952;21.714;2022-07-31T04:14:24;16.27;;;14.57;;
43070;SDS011;36278;47.952;21.714;2022-07-31T04:16:50;15.52;;;14.13;;
43070;SDS011;36278;47.952;21.714;2022-07-31T04:19:15;15.55;;;14.13;;
43070;SDS011;36278;47.952;21.714;2022-07-31T04:21:41;15.32;;;13.90;;
43070;SDS011;36278;47.952;21.714;2022-07-31T04:24:06;15.38;;;13.77;;
43070;SDS011;36278;47.952;21.714;2022-07-31T04:26:33;15.07;;;13.77;;
43070;SDS011;36278;47.952;21.714;2022-07-31T04:28:58;15.82;;;14.43;;
43070;SDS011;36278;47.952;21.714;2022-07-31T04:31:24;15.85;;;14.43;;
43070;SDS011;36278;47.952;21.714;2022-07-31T04:33:50;17.00;;;15.27;;
43070;SDS011;36278;47.952;21.714;2022-07-31T04:36:16;15.70;;;14.15;;
43070;SDS011;36278;47.952;21.714;2022-07-31T04:38:41;15.25;;;13.75;;
43070;SDS011;36278;47.952;21.714;2022-07-31T04:41:07;16.67;;;13.45;;
43070;SDS011;36278;47.952;21.714;2022-07-31T04:43:32;14.43;;;13.13;;
43070;SDS011;36278;47.952;21.714;2022-07-31T04:45:58;14.85;;;13.45;;
43070;SDS011;36278;47.952;21.714;2022-07-31T04:48:23;15.25;;;13.65;;
43070;SDS011;36278;47.952;21.714;2022-07-31T04:50:49;15.38;;;13.52;;
43070;SDS011;36278;47.952;21.714;2022-07-31T04:53:14;14.90;;;13.43;;
43070;SDS011;36278;47.952;21.714;2022-07-31T04:55:40;15.75;;;14.15;;
43070;SDS011;36278;47.952;21.714;2022-07-31T04:58:06;15.52;;;14.02;;
43070;SDS011;36278;47.952;21.714;2022-07-31T05:00:31;15.30;;;13.80;;
43070;SDS011;36278;47.952;21.714;2022-07-31T05:02:57;14.35;;;12.90;;
43070;SDS011;36278;47.952;21.714;2022-07-31T05:05:23;14.10;;;12.70;;
43070;SDS011;36278;47.952;21.714;2022-07-31T05:07:48;13.93;;;12.52;;
43070;SDS011;36278;47.952;21.714;2022-07-31T05:10:14;14.70;;;13.40;;
43070;SDS011;36278;47.952;21.714;2022-07-31T05:12:59;13.95;;;12.70;;
43070;SDS011;36278;47.952;21.714;2022-07-31T05:15:25;14.70;;;13.25;;
43070;SDS011;36278;47.952;21.714;2022-07-31T05:17:50;13.50;;;12.10;;
43070;SDS011;36278;47.952;21.714;2022-07-31T05:20:16;13.88;;;12.63;;
43070;SDS011;36278;47.952;21.714;2022-07-31T05:22:41;15.15;;;12.48;;
43070;SDS011;36278;47.952;21.714;2022-07-31T05:25:07;15.48;;;13.13;;
43070;SDS011;36278;47.952;21.714;2022-07-31T05:27:33;14.13;;;12.88;;
43070;SDS011;36278;47.952;21.714;2022-07-31T05:29:58;14.13;;;12.73;;
43070;SDS011;36278;47.952;21.714;2022-07-31T05:32:24;14.77;;;13.40;;
43070;SDS011;36278;47.952;21.714;2022-07-31T05:34:49;13.23;;;11.90;;
43070;SDS011;36278;47.952;21.714;2022-07-31T05:37:15;13.45;;;12.10;;
43070;SDS011;36278;47.952;21.714;2022-07-31T05:39:40;13.13;;;11.93;;
43070;SDS011;36278;47.952;21.714;2022-07-31T05:42:06;13.90;;;12.50;;
43070;SDS011;36278;47.952;21.714;2022-07-31T05:44:31;13.68;;;12.45;;
43070;SDS011;36278;47.952;21.714;2022-07-31T05:46:57;14.25;;;12.77;;
43070;SDS011;36278;47.952;21.714;2022-07-31T05:49:23;13.18;;;11.98;;
43070;SDS011;36278;47.952;21.714;2022-07-31T05:51:50;11.75;;;10.65;;
43070;SDS011;36278;47.952;21.714;2022-07-31T05:54:18;13.20;;;11.82;;
43070;SDS011;36278;47.952;21.714;2022-07-31T05:56:44;12.75;;;11.55;;
43070;SDS011;36278;47.952;21.714;2022-07-31T05:59:09;12.85;;;11.57;;
43070;SDS011;36278;47.952;21.714;2022-07-31T06:01:34;13.02;;;11.80;;
43070;SDS011;36278;47.952;21.714;2022-07-31T06:04:00;11.60;;;10.45;;
43070;SDS011;36278;47.952;21.714;2022-07-31T06:06:26;12.65;;;11.40;;
43070;SDS011;36278;47.952;21.714;2022-07-31T06:08:52;13.32;;;11.75;;
43070;SDS011;36278;47.952;21.714;2022-07-31T06:11:17;12.32;;;11.23;;
43070;SDS011;36278;47.952;21.714;2022-07-31T06:13:42;13.00;;;11.80;;
43070;SDS011;36278;47.952;21.714;2022-07-31T06:16:14;15.85;;;12.20;;
43070;SDS011;36278;47.952;21.714;2022-07-31T06:18:40;12.43;;;11.20;;
43070;SDS011;36278;47.952;21.714;2022-07-31T06:21:06;11.68;;;10.50;;
43070;SDS011;36278;47.952;21.714;2022-07-31T06:23:31;11.80;;;10.60;;
43070;SDS011;36278;47.952;21.714;2022-07-31T06:25:57;12.23;;;11.13;;
43070;SDS011;36278;47.952;21.714;2022-07-31T06:28:22;11.88;;;10.68;;
43070;SDS011;36278;47.952;21.714;2022-07-31T06:30:48;12.13;;;10.93;;
43070;SDS011;36278;47.952;21.714;2022-07-31T06:33:13;10.63;;;9.60;;
43070;SDS011;36278;47.952;21.714;2022-07-31T06:35:39;10.80;;;9.80;;
43070;SDS011;36278;47.952;21.714;2022-07-31T06:38:04;11.65;;;10.15;;
43070;SDS011;36278;47.952;21.714;2022-07-31T06:40:30;11.00;;;9.93;;
43070;SDS011;36278;47.952;21.714;2022-07-31T06:42:55;10.32;;;9.43;;
43070;SDS011;36278;47.952;21.714;2022-07-31T06:45:21;10.15;;;9.25;;
43070;SDS011;36278;47.952;21.714;2022-07-31T06:47:46;10.02;;;9.02;;
43070;SDS011;36278;47.952;21.714;2022-07-31T06:50:12;9.95;;;8.82;;
43070;SDS011;36278;47.952;21.714;2022-07-31T06:52:37;9.43;;;8.45;;
43070;SDS011;36278;47.952;21.714;2022-07-31T06:55:03;8.90;;;8.10;;
43070;SDS011;36278;47.952;21.714;2022-07-31T06:57:30;9.85;;;8.70;;
43070;SDS011;36278;47.952;21.714;2022-07-31T06:59:56;9.50;;;8.20;;
43070;SDS011;36278;47.952;21.714;2022-07-31T07:02:21;10.13;;;9.13;;
43070;SDS011;36278;47.952;21.714;2022-07-31T07:04:46;9.05;;;8.25;;
43070;SDS011;36278;47.952;21.714;2022-07-31T07:07:12;9.13;;;8.32;;
43070;SDS011;36278;47.952;21.714;2022-07-31T07:09:37;10.55;;;8.80;;
43070;SDS011;36278;47.952;21.714;2022-07-31T07:12:03;9.82;;;8.88;;
43070;SDS011;36278;47.952;21.714;2022-07-31T07:14:28;10.05;;;8.95;;
43070;SDS011;36278;47.952;21.714;2022-07-31T07:16:53;15.75;;;9.35;;
43070;SDS011;36278;47.952;21.714;2022-07-31T07:19:19;11.38;;;8.23;;
43070;SDS011;36278;47.952;21.714;2022-07-31T07:21:44;8.60;;;7.72;;
43070;SDS011;36278;47.952;21.714;2022-07-31T07:24:10;8.27;;;7.50;;
43070;SDS011;36278;47.952;21.714;2022-07-31T07:26:35;8.95;;;8.05;;
43070;SDS011;36278;47.952;21.714;2022-07-31T07:29:01;8.68;;;7.65;;
43070;SDS011;36278;47.952;21.714;2022-07-31T07:31:26;9.65;;;7.70;;
43070;SDS011;36278;47.952;21.714;2022-07-31T07:33:52;8.13;;;7.35;;
43070;SDS011;36278;47.952;21.714;2022-07-31T07:36:19;8.80;;;8.05;;
43070;SDS011;36278;47.952;21.714;2022-07-31T07:38:45;8.88;;;8.10;;
43070;SDS011;36278;47.952;21.714;2022-07-31T07:41:10;8.40;;;7.60;;
43070;SDS011;36278;47.952;21.714;2022-07-31T07:43:36;8.57;;;7.78;;
43070;SDS011;36278;47.952;21.714;2022-07-31T07:46:01;10.73;;;8.25;;
43070;SDS011;36278;47.952;21.714;2022-07-31T07:48:27;8.98;;;8.18;;
43070;SDS011;36278;47.952;21.714;2022-07-31T07:50:52;11.18;;;7.35;;
43070;SDS011;36278;47.952;21.714;2022-07-31T07:53:18;8.70;;;7.90;;
43070;SDS011;36278;47.952;21.714;2022-07-31T07:55:43;8.70;;;7.90;;
43070;SDS011;36278;47.952;21.714;2022-07-31T07:58:08;8.70;;;7.90;;
43070;SDS011;36278;47.952;21.714;2022-07-31T08:00:34;8.60;;;7.80;;
43070;SDS011;36278;47.952;21.714;2022-07-31T08:02:59;9.10;;;7.03;;
43070;SDS011;36278;47.952;21.714;2022-07-31T08:05:25;7.80;;;6.90;;
43070;SDS011;36278;47.952;21.714;2022-07-31T08:07:50;7.25;;;6.55;;
43070;SDS011;36278;47.952;21.714;2022-07-31T08:10:16;7.22;;;6.40;;
43070;SDS011;36278;47.952;21.714;2022-07-31T08:12:43;8.02;;;5.85;;
43070;SDS011;36278;47.952;21.714;2022-07-31T08:15:09;9.10;;;6.53;;
43070;SDS011;36278;47.952;21.714;2022-07-31T08:17:35;6.15;;;5.45;;
43070;SDS011;36278;47.952;21.714;2022-07-31T08:20:01;5.80;;;5.30;;
43070;SDS011;36278;47.952;21.714;2022-07-31T08:22:27;6.75;;;5.80;;
43070;SDS011;36278;47.952;21.714;2022-07-31T08:24:53;8.68;;;5.57;;
43070;SDS011;36278;47.952;21.714;2022-07-31T08:27:21;8.02;;;5.22;;
43070;SDS011;36278;47.952;21.714;2022-07-31T08:29:52;10.02;;;4.90;;
43070;SDS011;36278;47.952;21.714;2022-07-31T08:32:20;9.57;;;6.18;;
43070;SDS011;36278;47.952;21.714;2022-07-31T08:34:46;5.80;;;5.30;;
43070;SDS011;36278;47.952;21.714;2022-07-31T08:37:11;5.95;;;5.35;;
43070;SDS011;36278;47.952;21.714;2022-07-31T08:39:37;6.25;;;5.65;;
43070;SDS011;36278;47.952;21.714;2022-07-31T08:42:07;6.00;;;5.47;;
43070;SDS011;36278;47.952;21.714;2022-07-31T08:44:34;6.22;;;5.38;;
43070;SDS011;36278;47.952;21.714;2022-07-31T08:47:01;5.78;;;5.28;;
43070;SDS011;36278;47.952;21.714;2022-07-31T08:49:28;5.57;;;5.07;;
43070;SDS011;36278;47.952;21.714;2022-07-31T08:51:55;5.70;;;5.22;;
43070;SDS011;36278;47.952;21.714;2022-07-31T08:54:23;6.78;;;5.22;;
43070;SDS011;36278;47.952;21.714;2022-07-31T08:56:50;7.43;;;5.97;;
43070;SDS011;36278;47.952;21.714;2022-07-31T08:59:17;6.97;;;5.57;;
43070;SDS011;36278;47.952;21.714;2022-07-31T09:01:42;5.72;;;5.22;;
43070;SDS011;36278;47.952;21.714;2022-07-31T09:04:08;5.53;;;3.90;;
43070;SDS011;36278;47.952;21.714;2022-07-31T09:06:34;4.25;;;3.30;;
43070;SDS011;36278;47.952;21.714;2022-07-31T09:09:00;3.88;;;3.58;;
43070;SDS011;36278;47.952;21.714;2022-07-31T09:11:26;8.25;;;3.80;;
43070;SDS011;36278;47.952;21.714;2022-07-31T09:13:55;3.53;;;3.22;;
43070;SDS011;36278;47.952;21.714;2022-07-31T09:16:24;5.40;;;2.72;;
43070;SDS011;36278;47.952;21.714;2022-07-31T09:18:57;5.78;;;3.22;;
43070;SDS011;36278;47.952;21.714;2022-07-31T09:21:24;3.70;;;3.17;;
43070;SDS011;36278;47.952;21.714;2022-07-31T09:23:50;4.57;;;3.00;;
43070;SDS011;36278;47.952;21.714;2022-07-31T09:26:16;5.15;;;2.63;;
43070;SDS011;36278;47.952;21.714;2022-07-31T09:28:46;4.20;;;2.30;;
43070;SDS011;36278;47.952;21.714;2022-07-31T09:31:17;2.53;;;2.17;;
43070;SDS011;36278;47.952;21.714;2022-07-31T09:33:44;3.10;;;2.15;;
43070;SDS011;36278;47.952;21.714;2022-07-31T09:36:11;2.95;;;2.10;;
43070;SDS011;36278;47.952;21.714;2022-07-31T09:38:38;2.60;;;2.40;;
43070;SDS011;36278;47.952;21.714;2022-07-31T09:43:34;4.15;;;2.20;;
43070;SDS011;36278;47.952;21.714;2022-07-31T09:46:00;5.75;;;2.33;;
43070;SDS011;36278;47.952;21.714;2022-07-31T09:48:27;2.28;;;2.08;;
43070;SDS011;36278;47.952;21.714;2022-07-31T09:53:22;4.15;;;2.53;;
43070;SDS011;36278;47.952;21.714;2022-07-31T09:55:48;3.75;;;2.15;;
43070;SDS011;36278;47.952;21.714;2022-07-31T09:58:18;3.05;;;2.10;;
43070;SDS011;36278;47.952;21.714;2022-07-31T10:00:44;2.15;;;1.95;;
43070;SDS011;36278;47.952;21.714;2022-07-31T10:03:12;2.80;;;2.10;;
43070;SDS011;36278;47.952;21.714;2022-07-31T10:05:40;4.32;;;1.98;;
43070;SDS011;36278;47.952;21.714;2022-07-31T10:08:06;5.05;;;2.10;;
43070;SDS011;36278;47.952;21.714;2022-07-31T10:10:32;2.67;;;1.85;;
43070;SDS011;36278;47.952;21.714;2022-07-31T10:13:00;3.20;;;2.00;;
43070;SDS011;36278;47.952;21.714;2022-07-31T10:15:30;1.92;;;1.73;;
43070;SDS011;36278;47.952;21.714;2022-07-31T10:17:59;1.85;;;1.70;;
43070;SDS011;36278;47.952;21.714;2022-07-31T10:20:26;1.77;;;1.35;;
43070;SDS011;36278;47.952;21.714;2022-07-31T10:22:54;1.83;;;1.70;;
43070;SDS011;36278;47.952;21.714;2022-07-31T10:25:24;3.85;;;1.77;;
43070;SDS011;36278;47.952;21.714;2022-07-31T10:27:51;1.70;;;1.60;;
43070;SDS011;36278;47.952;21.714;2022-07-31T10:30:18;3.63;;;2.30;;
43070;SDS011;36278;47.952;21.714;2022-07-31T10:32:44;1.70;;;1.60;;
43070;SDS011;36278;47.952;21.714;2022-07-31T10:35:10;2.17;;;1.50;;
43070;SDS011;36278;47.952;21.714;2022-07-31T10:37:55;1.75;;;1.60;;
43070;SDS011;36278;47.952;21.714;2022-07-31T10:45:49;6.43;;;3.00;;
43070;SDS011;36278;47.952;21.714;2022-07-31T10:48:15;3.15;;;2.10;;
43070;SDS011;36278;47.952;21.714;2022-07-31T10:50:42;2.33;;;2.13;;
43070;SDS011;36278;47.952;21.714;2022-07-31T10:53:09;3.17;;;2.35;;
43070;SDS011;36278;47.952;21.714;2022-07-31T10:55:36;2.75;;;2.55;;
43070;SDS011;36278;47.952;21.714;2022-07-31T10:58:06;2.33;;;1.70;;
43070;SDS011;36278;47.952;21.714;2022-07-31T11:00:32;2.15;;;1.98;;
43070;SDS011;36278;47.952;21.714;2022-07-31T11:02:58;2.38;;;1.80;;
43070;SDS011;36278;47.952;21.714;2022-07-31T11:05:23;2.33;;;1.88;;
43070;SDS011;36278;47.952;21.714;2022-07-31T11:08:01;2.70;;;1.70;;
43070;SDS011;36278;47.952;21.714;2022-07-31T11:10:28;3.35;;;1.50;;
43070;SDS011;36278;47.952;21.714;2022-07-31T11:13:02;1.50;;;1.40;;
43070;SDS011;36278;47.952;21.714;2022-07-31T11:15:32;1.40;;;1.30;;
43070;SDS011;36278;47.952;21.714;2022-07-31T11:17:58;1.55;;;1.25;;
43070;SDS011;36278;47.952;21.714;2022-07-31T11:20:34;1.40;;;1.30;;
43070;SDS011;36278;47.952;21.714;2022-07-31T11:23:06;1.40;;;1.30;;
43070;SDS011;36278;47.952;21.714;2022-07-31T11:25:34;1.73;;;1.38;;
43070;SDS011;36278;47.952;21.714;2022-07-31T11:28:14;3.17;;;1.20;;
43070;SDS011;36278;47.952;21.714;2022-07-31T11:30:46;4.70;;;1.30;;
43070;SDS011;36278;47.952;21.714;2022-07-31T11:33:11;3.08;;;1.23;;
43070;SDS011;36278;47.952;21.714;2022-07-31T11:35:37;1.27;;;1.17;;
43070;SDS011;36278;47.952;21.714;2022-07-31T11:38:03;1.92;;;1.02;;
43070;SDS011;36278;47.952;21.714;2022-07-31T11:40:28;1.50;;;1.40;;
43070;SDS011;36278;47.952;21.714;2022-07-31T11:42:54;2.55;;;1.42;;
43070;SDS011;36278;47.952;21.714;2022-07-31T11:45:21;1.00;;;1.00;;
43070;SDS011;36278;47.952;21.714;2022-07-31T11:47:47;1.17;;;1.08;;
43070;SDS011;36278;47.952;21.714;2022-07-31T11:50:15;0.85;;;0.80;;
43070;SDS011;36278;47.952;21.714;2022-07-31T11:52:42;0.60;;;0.60;;
43070;SDS011;36278;47.952;21.714;2022-07-31T11:55:12;3.10;;;0.70;;
43070;SDS011;36278;47.952;21.714;2022-07-31T11:57:39;0.80;;;0.80;;
43070;SDS011;36278;47.952;21.714;2022-07-31T12:00:12;0.80;;;0.80;;
43070;SDS011;36278;47.952;21.714;2022-07-31T12:02:40;0.98;;;0.98;;
43070;SDS011;36278;47.952;21.714;2022-07-31T12:05:08;1.50;;;0.90;;
43070;SDS011;36278;47.952;21.714;2022-07-31T12:07:36;1.35;;;0.95;;
43070;SDS011;36278;47.952;21.714;2022-07-31T12:10:04;1.38;;;0.90;;
43070;SDS011;36278;47.952;21.714;2022-07-31T12:12:31;0.98;;;0.93;;
43070;SDS011;36278;47.952;21.714;2022-07-31T12:14:56;2.42;;;1.25;;
43070;SDS011;36278;47.952;21.714;2022-07-31T12:17:22;1.30;;;1.20;;
43070;SDS011;36278;47.952;21.714;2022-07-31T12:19:47;1.92;;;1.10;;
43070;SDS011;36278;47.952;21.714;2022-07-31T12:22:13;1.30;;;1.20;;
43070;SDS011;36278;47.952;21.714;2022-07-31T12:24:40;1.50;;;1.20;;
43070;SDS011;36278;47.952;21.714;2022-07-31T12:27:07;3.65;;;2.00;;
43070;SDS011;36278;47.952;21.714;2022-07-31T12:29:33;1.30;;;1.20;;
43070;SDS011;36278;47.952;21.714;2022-07-31T12:32:00;1.73;;;1.63;;
43070;SDS011;36278;47.952;21.714;2022-07-31T12:36:56;2.35;;;1.75;;
43070;SDS011;36278;47.952;21.714;2022-07-31T12:39:23;2.00;;;1.80;;
43070;SDS011;36278;47.952;21.714;2022-07-31T12:41:48;2.10;;;1.92;;
43070;SDS011;36278;47.952;21.714;2022-07-31T12:44:14;2.58;;;1.98;;
43070;SDS011;36278;47.952;21.714;2022-07-31T12:46:40;4.03;;;1.70;;
43070;SDS011;36278;47.952;21.714;2022-07-31T12:49:05;1.70;;;1.60;;
43070;SDS011;36278;47.952;21.714;2022-07-31T12:51:32;1.45;;;1.35;;
43070;SDS011;36278;47.952;21.714;2022-07-31T12:53:58;1.67;;;1.30;;
43070;SDS011;36278;47.952;21.714;2022-07-31T12:56:26;1.48;;;1.38;;
43070;SDS011;36278;47.952;21.714;2022-07-31T12:58:51;1.60;;;1.50;;
43070;SDS011;36278;47.952;21.714;2022-07-31T13:01:16;1.70;;;1.45;;
43070;SDS011;36278;47.952;21.714;2022-07-31T13:03:42;2.30;;;1.60;;
43070;SDS011;36278;47.952;21.714;2022-07-31T13:06:08;2.22;;;2.03;;
43070;SDS011;36278;47.952;21.714;2022-07-31T13:08:33;2.40;;;2.20;;
43070;SDS011;36278;47.952;21.714;2022-07-31T13:10:59;2.40;;;2.20;;
43070;SDS011;36278;47.952;21.714;2022-07-31T13:13:25;3.15;;;2.30;;
43070;SDS011;36278;47.952;21.714;2022-07-31T13:15:50;2.60;;;2.40;;
43070;SDS011;36278;47.952;21.714;2022-07-31T13:18:15;2.75;;;2.55;;
43070;SDS011;36278;47.952;21.714;2022-07-31T13:20:41;3.85;;;2.60;;
43070;SDS011;36278;47.952;21.714;2022-07-31T13:23:07;2.92;;;2.63;;
43070;SDS011;36278;47.952;21.714;2022-07-31T13:25:32;3.60;;;3.30;;
43070;SDS011;36278;47.952;21.714;2022-07-31T13:27:58;3.78;;;2.60;;
43070;SDS011;36278;47.952;21.714;2022-07-31T13:30:24;2.72;;;2.53;;
43070;SDS011;36278;47.952;21.714;2022-07-31T13:32:51;3.33;;;2.63;;
43070;SDS011;36278;47.952;21.714;2022-07-31T13:35:17;3.40;;;3.10;;
43070;SDS011;36278;47.952;21.714;2022-07-31T13:37:45;2.88;;;2.63;;
43070;SDS011;36278;47.952;21.714;2022-07-31T13:40:13;8.52;;;2.58;;
43070;SDS011;36278;47.952;21.714;2022-07-31T13:42:39;2.70;;;2.50;;
43070;SDS011;36278;47.952;21.714;2022-07-31T13:45:04;2.75;;;2.45;;
43070;SDS011;36278;47.952;21.714;2022-07-31T13:47:30;2.83;;;2.50;;
43070;SDS011;36278;47.952;21.714;2022-07-31T13:49:56;3.08;;;2.53;;
43070;SDS011;36278;47.952;21.714;2022-07-31T13:52:21;4.03;;;2.28;;
43070;SDS011;36278;47.952;21.714;2022-07-31T13:54:47;2.70;;;2.50;;
43070;SDS011;36278;47.952;21.714;2022-07-31T13:57:12;2.33;;;2.13;;
43070;SDS011;36278;47.952;21.714;2022-07-31T13:59:39;2.90;;;2.53;;
43070;SDS011;36278;47.952;21.714;2022-07-31T14:02:05;7.40;;;2.42;;
43070;SDS011;36278;47.952;21.714;2022-07-31T14:04:31;2.80;;;2.40;;
43070;SDS011;36278;47.952;21.714;2022-07-31T14:06:56;6.15;;;2.80;;
43070;SDS011;36278;47.952;21.714;2022-07-31T14:09:22;4.13;;;2.50;;
43070;SDS011;36278;47.952;21.714;2022-07-31T14:11:47;2.75;;;2.55;;
43070;SDS011;36278;47.952;21.714;2022-07-31T14:14:13;3.95;;;2.60;;
43070;SDS011;36278;47.952;21.714;2022-07-31T14:16:38;2.85;;;2.65;;
43070;SDS011;36278;47.952;21.714;2022-07-31T14:19:05;6.25;;;3.10;;
43070;SDS011;36278;47.952;21.714;2022-07-31T14:21:32;3.17;;;2.80;;
43070;SDS011;36278;47.952;21.714;2022-07-31T14:23:58;3.65;;;2.67;;
43070;SDS011;36278;47.952;21.714;2022-07-31T14:26:23;2.70;;;2.50;;
43070;SDS011;36278;47.952;21.714;2022-07-31T14:28:49;3.53;;;3.05;;
43070;SDS011;36278;47.952;21.714;2022-07-31T14:31:14;3.05;;;2.85;;
43070;SDS011;36278;47.952;21.714;2022-07-31T14:33:41;2.88;;;2.63;;
43070;SDS011;36278;47.952;21.714;2022-07-31T14:36:06;4.68;;;2.60;;
43070;SDS011;36278;47.952;21.714;2022-07-31T14:38:32;3.83;;;2.97;;
43070;SDS011;36278;47.952;21.714;2022-07-31T14:40:57;3.13;;;2.83;;